sensor_id;sensor_type;location;lat;lon;timestamp;P1;durP1;ratioP1;P2;durP2;ratioP2
16442;SDS011;8331;51.654;14.376;2023-05-10T00:01:40;7.10;;;6.60;;
16442;SDS011;8331;51.654;14.376;2023-05-10T00:04:11;6.40;;;5.80;;
16442;SDS011;8331;51.654;14.376;2023-05-10T00:06:38;6.30;;;5.80;;
16442;SDS011;8331;51.654;14.376;2023-05-10T00:09:19;6.23;;;5.77;;
16442;SDS011;8331;51.654;14.376;2023-05-10T00:11:46;6.80;;;6.20;;
16442;SDS011;8331;51.654;14.376;2023-05-10T00:14:13;6.87;;;6.27;;
16442;SDS011;8331;51.654;14.376;2023-05-10T00:16:45;6.80;;;6.20;;
16442;SDS011;8331;51.654;14.376;2023-05-10T00:19:12;6.40;;;5.90;;
16442;SDS011;8331;51.654;14.376;2023-05-10T00:21:43;6.43;;;5.93;;
16442;SDS011;8331;51.654;14.376;2023-05-10T00:24:09;7.17;;;6.60;;
16442;SDS011;8331;51.654;14.376;2023-05-10T00:26:36;7.37;;;6.47;;
16442;SDS011;8331;51.654;14.376;2023-05-10T00:29:03;6.67;;;6.13;;
16442;SDS011;8331;51.654;14.376;2023-05-10T00:31:30;6.57;;;6.07;;
16442;SDS011;8331;51.654;14.376;2023-05-10T00:33:56;6.63;;;6.13;;
16442;SDS011;8331;51.654;14.376;2023-05-10T00:36:23;7.33;;;6.63;;
16442;SDS011;8331;51.654;14.376;2023-05-10T00:38:50;6.70;;;6.17;;
16442;SDS011;8331;51.654;14.376;2023-05-10T00:41:16;7.43;;;6.83;;
16442;SDS011;8331;51.654;14.376;2023-05-10T00:43:44;7.13;;;6.60;;
16442;SDS011;8331;51.654;14.376;2023-05-10T00:46:11;8.03;;;5.77;;
16442;SDS011;8331;51.654;14.376;2023-05-10T00:48:37;6.90;;;6.30;;
16442;SDS011;8331;51.654;14.376;2023-05-10T00:51:04;7.27;;;6.63;;
16442;SDS011;8331;51.654;14.376;2023-05-10T00:53:31;6.73;;;6.23;;
16442;SDS011;8331;51.654;14.376;2023-05-10T00:55:58;7.00;;;6.40;;
16442;SDS011;8331;51.654;14.376;2023-05-10T00:58:25;7.17;;;6.57;;
16442;SDS011;8331;51.654;14.376;2023-05-10T01:00:57;6.73;;;6.13;;
16442;SDS011;8331;51.654;14.376;2023-05-10T01:03:24;7.17;;;6.57;;
16442;SDS011;8331;51.654;14.376;2023-05-10T01:05:52;7.57;;;6.87;;
16442;SDS011;8331;51.654;14.376;2023-05-10T01:08:18;7.10;;;6.60;;
16442;SDS011;8331;51.654;14.376;2023-05-10T01:10:45;7.47;;;6.87;;
16442;SDS011;8331;51.654;14.376;2023-05-10T01:13:12;6.50;;;6.00;;
16442;SDS011;8331;51.654;14.376;2023-05-10T01:15:40;6.97;;;6.33;;
16442;SDS011;8331;51.654;14.376;2023-05-10T01:18:07;6.63;;;6.13;;
16442;SDS011;8331;51.654;14.376;2023-05-10T01:20:39;10.03;;;6.70;;
16442;SDS011;8331;51.654;14.376;2023-05-10T01:33:36;7.07;;;6.50;;
16442;SDS011;8331;51.654;14.376;2023-05-10T01:43:53;7.07;;;6.37;;
16442;SDS011;8331;51.654;14.376;2023-05-10T01:46:33;7.33;;;6.70;;
16442;SDS011;8331;51.654;14.376;2023-05-10T01:49:01;7.20;;;6.60;;
16442;SDS011;8331;51.654;14.376;2023-05-10T01:51:30;7.40;;;6.80;;
16442;SDS011;8331;51.654;14.376;2023-05-10T01:54:00;8.83;;;7.60;;
16442;SDS011;8331;51.654;14.376;2023-05-10T01:56:28;8.03;;;7.27;;
16442;SDS011;8331;51.654;14.376;2023-05-10T01:58:57;9.43;;;7.27;;
16442;SDS011;8331;51.654;14.376;2023-05-10T02:01:25;7.70;;;7.10;;
16442;SDS011;8331;51.654;14.376;2023-05-10T02:03:53;7.80;;;7.03;;
16442;SDS011;8331;51.654;14.376;2023-05-10T02:06:22;7.47;;;6.87;;
16442;SDS011;8331;51.654;14.376;2023-05-10T02:08:51;7.63;;;6.97;;
16442;SDS011;8331;51.654;14.376;2023-05-10T02:11:18;9.57;;;7.33;;
16442;SDS011;8331;51.654;14.376;2023-05-10T02:13:48;7.47;;;6.77;;
16442;SDS011;8331;51.654;14.376;2023-05-10T02:16:16;8.37;;;7.37;;
16442;SDS011;8331;51.654;14.376;2023-05-10T02:18:43;7.90;;;7.20;;
16442;SDS011;8331;51.654;14.376;2023-05-10T02:21:10;6.83;;;6.30;;
16442;SDS011;8331;51.654;14.376;2023-05-10T02:23:38;7.80;;;7.00;;
16442;SDS011;8331;51.654;14.376;2023-05-10T02:26:05;7.13;;;6.53;;
16442;SDS011;8331;51.654;14.376;2023-05-10T02:28:33;7.63;;;6.97;;
16442;SDS011;8331;51.654;14.376;2023-05-10T02:31:01;7.33;;;6.73;;
16442;SDS011;8331;51.654;14.376;2023-05-10T02:33:28;7.80;;;7.00;;
16442;SDS011;8331;51.654;14.376;2023-05-10T02:35:55;7.43;;;6.83;;
16442;SDS011;8331;51.654;14.376;2023-05-10T02:38:22;8.10;;;7.40;;
16442;SDS011;8331;51.654;14.376;2023-05-10T02:40:50;7.10;;;6.50;;
16442;SDS011;8331;51.654;14.376;2023-05-10T02:43:17;8.17;;;7.27;;
16442;SDS011;8331;51.654;14.376;2023-05-10T02:45:45;8.00;;;7.37;;
16442;SDS011;8331;51.654;14.376;2023-05-10T02:48:13;7.80;;;7.10;;
16442;SDS011;8331;51.654;14.376;2023-05-10T02:50:41;7.80;;;7.07;;
16442;SDS011;8331;51.654;14.376;2023-05-10T02:53:10;8.07;;;7.27;;
16442;SDS011;8331;51.654;14.376;2023-05-10T02:55:38;7.90;;;7.20;;
16442;SDS011;8331;51.654;14.376;2023-05-10T02:58:06;8.60;;;7.73;;
16442;SDS011;8331;51.654;14.376;2023-05-10T03:00:33;7.60;;;6.97;;
16442;SDS011;8331;51.654;14.376;2023-05-10T03:03:00;7.73;;;7.03;;
16442;SDS011;8331;51.654;14.376;2023-05-10T03:05:27;8.17;;;7.37;;
16442;SDS011;8331;51.654;14.376;2023-05-10T03:07:55;7.90;;;7.10;;
16442;SDS011;8331;51.654;14.376;2023-05-10T03:10:24;7.50;;;6.80;;
16442;SDS011;8331;51.654;14.376;2023-05-10T03:18:10;7.97;;;7.27;;
16442;SDS011;8331;51.654;14.376;2023-05-10T03:20:42;8.30;;;7.40;;
16442;SDS011;8331;51.654;14.376;2023-05-10T03:25:44;6.90;;;6.50;;
16442;SDS011;8331;51.654;14.376;2023-05-10T03:28:13;7.53;;;6.87;;
16442;SDS011;8331;51.654;14.376;2023-05-10T03:30:41;7.67;;;7.07;;
16442;SDS011;8331;51.654;14.376;2023-05-10T03:33:11;6.77;;;6.17;;
16442;SDS011;8331;51.654;14.376;2023-05-10T03:35:41;7.60;;;6.90;;
16442;SDS011;8331;51.654;14.376;2023-05-10T03:38:08;9.47;;;6.83;;
16442;SDS011;8331;51.654;14.376;2023-05-10T03:40:35;8.00;;;7.20;;
16442;SDS011;8331;51.654;14.376;2023-05-10T03:43:01;7.10;;;6.60;;
16442;SDS011;8331;51.654;14.376;2023-05-10T03:45:28;6.77;;;6.23;;
16442;SDS011;8331;51.654;14.376;2023-05-10T03:47:54;10.80;;;7.27;;
16442;SDS011;8331;51.654;14.376;2023-05-10T03:50:21;7.57;;;6.87;;
16442;SDS011;8331;51.654;14.376;2023-05-10T03:52:48;7.13;;;6.53;;
16442;SDS011;8331;51.654;14.376;2023-05-10T03:55:14;7.07;;;6.50;;
16442;SDS011;8331;51.654;14.376;2023-05-10T03:57:41;7.50;;;6.83;;
16442;SDS011;8331;51.654;14.376;2023-05-10T04:00:08;6.80;;;6.30;;
16442;SDS011;8331;51.654;14.376;2023-05-10T04:02:41;7.07;;;6.33;;
16442;SDS011;8331;51.654;14.376;2023-05-10T04:05:15;6.57;;;5.97;;
16442;SDS011;8331;51.654;14.376;2023-05-10T04:07:42;6.87;;;6.27;;
16442;SDS011;8331;51.654;14.376;2023-05-10T04:10:10;6.17;;;5.77;;
16442;SDS011;8331;51.654;14.376;2023-05-10T04:12:37;6.43;;;5.97;;
16442;SDS011;8331;51.654;14.376;2023-05-10T04:15:04;7.00;;;6.30;;
16442;SDS011;8331;51.654;14.376;2023-05-10T04:17:30;7.07;;;6.50;;
16442;SDS011;8331;51.654;14.376;2023-05-10T04:19:57;6.30;;;5.67;;
16442;SDS011;8331;51.654;14.376;2023-05-10T04:22:24;6.77;;;6.07;;
16442;SDS011;8331;51.654;14.376;2023-05-10T04:24:51;6.23;;;5.73;;
16442;SDS011;8331;51.654;14.376;2023-05-10T04:27:17;6.17;;;5.60;;
16442;SDS011;8331;51.654;14.376;2023-05-10T04:29:44;6.30;;;5.83;;
16442;SDS011;8331;51.654;14.376;2023-05-10T04:32:10;6.47;;;5.87;;
16442;SDS011;8331;51.654;14.376;2023-05-10T04:34:37;6.20;;;5.60;;
16442;SDS011;8331;51.654;14.376;2023-05-10T04:37:04;6.17;;;5.57;;
16442;SDS011;8331;51.654;14.376;2023-05-10T04:39:30;5.87;;;5.47;;
16442;SDS011;8331;51.654;14.376;2023-05-10T04:41:57;5.50;;;5.10;;
16442;SDS011;8331;51.654;14.376;2023-05-10T04:44:23;6.97;;;5.67;;
16442;SDS011;8331;51.654;14.376;2023-05-10T04:46:50;5.80;;;5.40;;
16442;SDS011;8331;51.654;14.376;2023-05-10T04:49:17;5.37;;;4.97;;
16442;SDS011;8331;51.654;14.376;2023-05-10T04:51:44;6.80;;;5.83;;
16442;SDS011;8331;51.654;14.376;2023-05-10T04:54:10;5.80;;;5.40;;
16442;SDS011;8331;51.654;14.376;2023-05-10T04:56:37;5.30;;;4.90;;
16442;SDS011;8331;51.654;14.376;2023-05-10T04:59:03;6.13;;;5.20;;
16442;SDS011;8331;51.654;14.376;2023-05-10T05:01:30;5.40;;;4.90;;
16442;SDS011;8331;51.654;14.376;2023-05-10T05:03:57;6.27;;;5.30;;
16442;SDS011;8331;51.654;14.376;2023-05-10T05:06:23;5.63;;;5.10;;
16442;SDS011;8331;51.654;14.376;2023-05-10T05:08:51;5.67;;;5.17;;
16442;SDS011;8331;51.654;14.376;2023-05-10T05:11:18;5.23;;;4.83;;
16442;SDS011;8331;51.654;14.376;2023-05-10T05:13:44;5.80;;;5.30;;
16442;SDS011;8331;51.654;14.376;2023-05-10T05:16:11;7.00;;;4.80;;
16442;SDS011;8331;51.654;14.376;2023-05-10T05:18:38;5.57;;;4.93;;
16442;SDS011;8331;51.654;14.376;2023-05-10T05:21:14;5.30;;;4.50;;
16442;SDS011;8331;51.654;14.376;2023-05-10T05:23:42;4.77;;;4.37;;
16442;SDS011;8331;51.654;14.376;2023-05-10T05:26:09;5.23;;;4.73;;
16442;SDS011;8331;51.654;14.376;2023-05-10T05:28:35;6.33;;;4.20;;
16442;SDS011;8331;51.654;14.376;2023-05-10T05:31:04;4.53;;;4.23;;
16442;SDS011;8331;51.654;14.376;2023-05-10T05:33:31;4.60;;;4.30;;
16442;SDS011;8331;51.654;14.376;2023-05-10T05:36:04;4.57;;;4.27;;
16442;SDS011;8331;51.654;14.376;2023-05-10T05:38:31;4.83;;;4.33;;
16442;SDS011;8331;51.654;14.376;2023-05-10T05:40:58;5.13;;;4.10;;
16442;SDS011;8331;51.654;14.376;2023-05-10T05:43:24;4.63;;;4.33;;
16442;SDS011;8331;51.654;14.376;2023-05-10T05:45:54;4.03;;;3.50;;
16442;SDS011;8331;51.654;14.376;2023-05-10T05:48:21;3.87;;;3.50;;
16442;SDS011;8331;51.654;14.376;2023-05-10T05:50:47;4.07;;;3.60;;
16442;SDS011;8331;51.654;14.376;2023-05-10T05:53:14;4.57;;;3.87;;
16442;SDS011;8331;51.654;14.376;2023-05-10T05:55:50;4.00;;;3.40;;
16442;SDS011;8331;51.654;14.376;2023-05-10T05:58:17;3.40;;;3.10;;
16442;SDS011;8331;51.654;14.376;2023-05-10T06:00:43;3.90;;;3.50;;
16442;SDS011;8331;51.654;14.376;2023-05-10T06:03:10;3.90;;;3.60;;
16442;SDS011;8331;51.654;14.376;2023-05-10T06:05:37;3.80;;;3.50;;
16442;SDS011;8331;51.654;14.376;2023-05-10T06:08:03;3.80;;;3.40;;
16442;SDS011;8331;51.654;14.376;2023-05-10T06:10:30;4.97;;;3.47;;
16442;SDS011;8331;51.654;14.376;2023-05-10T06:12:56;3.77;;;3.53;;
16442;SDS011;8331;51.654;14.376;2023-05-10T06:15:23;4.17;;;3.30;;
16442;SDS011;8331;51.654;14.376;2023-05-10T06:17:50;4.07;;;3.50;;
16442;SDS011;8331;51.654;14.376;2023-05-10T06:20:16;4.40;;;3.00;;
16442;SDS011;8331;51.654;14.376;2023-05-10T06:22:43;3.53;;;3.23;;
16442;SDS011;8331;51.654;14.376;2023-05-10T06:25:10;3.53;;;3.23;;
16442;SDS011;8331;51.654;14.376;2023-05-10T06:27:36;2.87;;;2.67;;
16442;SDS011;8331;51.654;14.376;2023-05-10T06:30:03;3.63;;;3.30;;
16442;SDS011;8331;51.654;14.376;2023-05-10T06:32:40;3.20;;;2.90;;
16442;SDS011;8331;51.654;14.376;2023-05-10T06:35:07;4.73;;;3.00;;
16442;SDS011;8331;51.654;14.376;2023-05-10T06:37:34;2.93;;;2.73;;
16442;SDS011;8331;51.654;14.376;2023-05-10T06:40:00;3.23;;;3.03;;
16442;SDS011;8331;51.654;14.376;2023-05-10T06:42:28;3.50;;;2.63;;
16442;SDS011;8331;51.654;14.376;2023-05-10T06:44:54;3.03;;;2.80;;
16442;SDS011;8331;51.654;14.376;2023-05-10T06:47:21;3.67;;;2.67;;
16442;SDS011;8331;51.654;14.376;2023-05-10T06:49:48;3.13;;;2.93;;
16442;SDS011;8331;51.654;14.376;2023-05-10T06:52:15;3.30;;;2.53;;
16442;SDS011;8331;51.654;14.376;2023-05-10T06:54:41;4.20;;;3.03;;
16442;SDS011;8331;51.654;14.376;2023-05-10T06:57:08;9.73;;;2.60;;
16442;SDS011;8331;51.654;14.376;2023-05-10T06:59:54;3.47;;;2.70;;
16442;SDS011;8331;51.654;14.376;2023-05-10T07:02:22;2.90;;;2.70;;
16442;SDS011;8331;51.654;14.376;2023-05-10T07:04:49;5.97;;;2.53;;
16442;SDS011;8331;51.654;14.376;2023-05-10T07:07:15;3.07;;;2.77;;
16442;SDS011;8331;51.654;14.376;2023-05-10T07:09:42;2.57;;;2.33;;
16442;SDS011;8331;51.654;14.376;2023-05-10T07:12:09;3.00;;;2.80;;
16442;SDS011;8331;51.654;14.376;2023-05-10T07:14:39;3.10;;;2.80;;
16442;SDS011;8331;51.654;14.376;2023-05-10T07:17:06;3.97;;;2.63;;
16442;SDS011;8331;51.654;14.376;2023-05-10T07:19:32;3.10;;;2.77;;
16442;SDS011;8331;51.654;14.376;2023-05-10T07:21:59;3.17;;;2.40;;
16442;SDS011;8331;51.654;14.376;2023-05-10T07:24:25;3.20;;;2.73;;
16442;SDS011;8331;51.654;14.376;2023-05-10T07:26:52;2.77;;;2.50;;
16442;SDS011;8331;51.654;14.376;2023-05-10T07:29:19;6.17;;;2.60;;
16442;SDS011;8331;51.654;14.376;2023-05-10T07:31:45;5.00;;;2.40;;
16442;SDS011;8331;51.654;14.376;2023-05-10T07:34:12;2.40;;;2.20;;
16442;SDS011;8331;51.654;14.376;2023-05-10T07:36:38;6.93;;;2.30;;
16442;SDS011;8331;51.654;14.376;2023-05-10T07:39:05;5.50;;;2.43;;
16442;SDS011;8331;51.654;14.376;2023-05-10T07:41:31;3.60;;;2.40;;
16442;SDS011;8331;51.654;14.376;2023-05-10T07:44:00;5.53;;;2.70;;
16442;SDS011;8331;51.654;14.376;2023-05-10T07:46:27;6.23;;;2.47;;
16442;SDS011;8331;51.654;14.376;2023-05-10T07:48:54;3.43;;;2.20;;
16442;SDS011;8331;51.654;14.376;2023-05-10T07:51:21;4.33;;;2.60;;
16442;SDS011;8331;51.654;14.376;2023-05-10T07:53:48;2.60;;;2.40;;
16442;SDS011;8331;51.654;14.376;2023-05-10T07:56:24;2.87;;;2.27;;
16442;SDS011;8331;51.654;14.376;2023-05-10T07:58:54;3.27;;;2.00;;
16442;SDS011;8331;51.654;14.376;2023-05-10T08:01:20;2.53;;;2.33;;
16442;SDS011;8331;51.654;14.376;2023-05-10T08:03:47;4.33;;;2.17;;
16442;SDS011;8331;51.654;14.376;2023-05-10T08:06:14;7.33;;;2.33;;
16442;SDS011;8331;51.654;14.376;2023-05-10T08:08:41;3.57;;;2.30;;
16442;SDS011;8331;51.654;14.376;2023-05-10T08:11:08;2.33;;;2.13;;
16442;SDS011;8331;51.654;14.376;2023-05-10T08:13:35;5.27;;;2.33;;
16442;SDS011;8331;51.654;14.376;2023-05-10T08:16:01;2.90;;;2.20;;
16442;SDS011;8331;51.654;14.376;2023-05-10T08:18:28;5.53;;;2.00;;
16442;SDS011;8331;51.654;14.376;2023-05-10T08:20:55;3.83;;;2.13;;
16442;SDS011;8331;51.654;14.376;2023-05-10T08:23:21;5.33;;;2.63;;
16442;SDS011;8331;51.654;14.376;2023-05-10T08:25:48;5.20;;;2.13;;
16442;SDS011;8331;51.654;14.376;2023-05-10T08:28:14;3.53;;;2.10;;
16442;SDS011;8331;51.654;14.376;2023-05-10T08:30:41;4.23;;;1.90;;
16442;SDS011;8331;51.654;14.376;2023-05-10T08:33:08;3.63;;;2.17;;
16442;SDS011;8331;51.654;14.376;2023-05-10T08:35:34;2.43;;;2.10;;
16442;SDS011;8331;51.654;14.376;2023-05-10T08:38:01;3.77;;;2.20;;
16442;SDS011;8331;51.654;14.376;2023-05-10T08:40:27;2.17;;;2.03;;
16442;SDS011;8331;51.654;14.376;2023-05-10T08:43:04;4.23;;;2.13;;
16442;SDS011;8331;51.654;14.376;2023-05-10T08:45:33;2.23;;;1.83;;
16442;SDS011;8331;51.654;14.376;2023-05-10T08:48:02;5.87;;;2.00;;
16442;SDS011;8331;51.654;14.376;2023-05-10T08:50:31;2.97;;;2.17;;
16442;SDS011;8331;51.654;14.376;2023-05-10T08:52:59;2.77;;;2.03;;
16442;SDS011;8331;51.654;14.376;2023-05-10T08:55:26;2.57;;;2.20;;
16442;SDS011;8331;51.654;14.376;2023-05-10T08:57:53;3.30;;;1.93;;
16442;SDS011;8331;51.654;14.376;2023-05-10T09:00:20;2.60;;;1.97;;
16442;SDS011;8331;51.654;14.376;2023-05-10T09:02:46;4.23;;;2.40;;
16442;SDS011;8331;51.654;14.376;2023-05-10T09:05:14;3.90;;;2.23;;
16442;SDS011;8331;51.654;14.376;2023-05-10T09:07:42;2.70;;;2.37;;
16442;SDS011;8331;51.654;14.376;2023-05-10T09:10:09;2.50;;;2.00;;
16442;SDS011;8331;51.654;14.376;2023-05-10T09:12:37;3.77;;;1.90;;
16442;SDS011;8331;51.654;14.376;2023-05-10T09:15:04;3.87;;;2.10;;
16442;SDS011;8331;51.654;14.376;2023-05-10T09:17:32;2.30;;;2.00;;
16442;SDS011;8331;51.654;14.376;2023-05-10T09:19:59;3.67;;;2.20;;
16442;SDS011;8331;51.654;14.376;2023-05-10T09:22:26;3.10;;;2.00;;
16442;SDS011;8331;51.654;14.376;2023-05-10T09:25:09;5.67;;;2.23;;
16442;SDS011;8331;51.654;14.376;2023-05-10T09:27:37;3.70;;;2.17;;
16442;SDS011;8331;51.654;14.376;2023-05-10T09:30:05;5.17;;;2.03;;
16442;SDS011;8331;51.654;14.376;2023-05-10T09:32:36;3.73;;;2.40;;
16442;SDS011;8331;51.654;14.376;2023-05-10T09:35:09;3.37;;;2.00;;
16442;SDS011;8331;51.654;14.376;2023-05-10T09:37:36;3.57;;;2.17;;
16442;SDS011;8331;51.654;14.376;2023-05-10T09:40:06;7.87;;;2.30;;
16442;SDS011;8331;51.654;14.376;2023-05-10T09:42:34;2.60;;;2.00;;
16442;SDS011;8331;51.654;14.376;2023-05-10T09:45:04;2.80;;;2.10;;
16442;SDS011;8331;51.654;14.376;2023-05-10T09:47:31;2.30;;;1.90;;
16442;SDS011;8331;51.654;14.376;2023-05-10T09:49:58;2.17;;;2.07;;
16442;SDS011;8331;51.654;14.376;2023-05-10T09:52:30;8.83;;;2.10;;
16442;SDS011;8331;51.654;14.376;2023-05-10T09:54:56;4.20;;;2.33;;
16442;SDS011;8331;51.654;14.376;2023-05-10T09:57:23;4.07;;;2.00;;
16442;SDS011;8331;51.654;14.376;2023-05-10T09:59:50;2.37;;;2.10;;
16442;SDS011;8331;51.654;14.376;2023-05-10T10:02:17;4.73;;;2.13;;
16442;SDS011;8331;51.654;14.376;2023-05-10T10:04:43;2.80;;;2.03;;
16442;SDS011;8331;51.654;14.376;2023-05-10T10:07:10;3.93;;;2.10;;
16442;SDS011;8331;51.654;14.376;2023-05-10T10:09:37;3.37;;;2.23;;
16442;SDS011;8331;51.654;14.376;2023-05-10T10:12:04;5.27;;;2.20;;
16442;SDS011;8331;51.654;14.376;2023-05-10T10:14:31;3.63;;;1.90;;
16442;SDS011;8331;51.654;14.376;2023-05-10T10:16:59;2.43;;;1.97;;
16442;SDS011;8331;51.654;14.376;2023-05-10T10:19:34;3.13;;;2.27;;
16442;SDS011;8331;51.654;14.376;2023-05-10T10:22:02;3.50;;;1.97;;
16442;SDS011;8331;51.654;14.376;2023-05-10T10:24:29;3.90;;;2.20;;
16442;SDS011;8331;51.654;14.376;2023-05-10T10:26:57;3.83;;;2.20;;
16442;SDS011;8331;51.654;14.376;2023-05-10T10:29:26;3.87;;;1.87;;
16442;SDS011;8331;51.654;14.376;2023-05-10T10:32:03;2.60;;;2.00;;
16442;SDS011;8331;51.654;14.376;2023-05-10T10:34:31;3.85;;;2.20;;
16442;SDS011;8331;51.654;14.376;2023-05-10T10:36:57;2.20;;;2.00;;
16442;SDS011;8331;51.654;14.376;2023-05-10T10:39:29;3.57;;;2.00;;
16442;SDS011;8331;51.654;14.376;2023-05-10T10:41:57;2.47;;;1.90;;
16442;SDS011;8331;51.654;14.376;2023-05-10T10:49:42;2.20;;;1.93;;
16442;SDS011;8331;51.654;14.376;2023-05-10T10:52:15;2.93;;;1.93;;
16442;SDS011;8331;51.654;14.376;2023-05-10T10:54:46;4.17;;;2.10;;
16442;SDS011;8331;51.654;14.376;2023-05-10T10:57:17;3.73;;;1.97;;
16442;SDS011;8331;51.654;14.376;2023-05-10T10:59:44;2.80;;;1.90;;
16442;SDS011;8331;51.654;14.376;2023-05-10T11:04:56;6.50;;;2.27;;
16442;SDS011;8331;51.654;14.376;2023-05-10T11:07:23;6.20;;;2.10;;
16442;SDS011;8331;51.654;14.376;2023-05-10T11:09:50;5.60;;;2.07;;
16442;SDS011;8331;51.654;14.376;2023-05-10T11:12:17;2.03;;;1.83;;
16442;SDS011;8331;51.654;14.376;2023-05-10T11:14:49;3.53;;;1.63;;
16442;SDS011;8331;51.654;14.376;2023-05-10T11:17:22;2.00;;;1.90;;
16442;SDS011;8331;51.654;14.376;2023-05-10T11:22:52;4.33;;;1.97;;
16442;SDS011;8331;51.654;14.376;2023-05-10T11:25:19;2.80;;;2.00;;
16442;SDS011;8331;51.654;14.376;2023-05-10T11:27:47;4.23;;;1.97;;
16442;SDS011;8331;51.654;14.376;2023-05-10T11:30:14;3.63;;;1.90;;
16442;SDS011;8331;51.654;14.376;2023-05-10T11:32:41;2.90;;;1.80;;
16442;SDS011;8331;51.654;14.376;2023-05-10T11:35:08;2.10;;;2.00;;
16442;SDS011;8331;51.654;14.376;2023-05-10T11:37:35;5.47;;;1.90;;
16442;SDS011;8331;51.654;14.376;2023-05-10T11:40:02;3.77;;;2.00;;
16442;SDS011;8331;51.654;14.376;2023-05-10T11:42:29;2.40;;;1.63;;
16442;SDS011;8331;51.654;14.376;2023-05-10T11:44:56;1.90;;;1.80;;
16442;SDS011;8331;51.654;14.376;2023-05-10T11:47:23;5.23;;;1.80;;
16442;SDS011;8331;51.654;14.376;2023-05-10T11:49:49;3.33;;;1.80;;
16442;SDS011;8331;51.654;14.376;2023-05-10T11:52:16;3.70;;;1.80;;
16442;SDS011;8331;51.654;14.376;2023-05-10T11:54:45;4.00;;;1.80;;
16442;SDS011;8331;51.654;14.376;2023-05-10T11:57:12;2.23;;;1.80;;
16442;SDS011;8331;51.654;14.376;2023-05-10T11:59:39;2.50;;;2.00;;
16442;SDS011;8331;51.654;14.376;2023-05-10T12:02:08;1.80;;;1.70;;
16442;SDS011;8331;51.654;14.376;2023-05-10T12:04:35;2.57;;;2.13;;
16442;SDS011;8331;51.654;14.376;2023-05-10T12:07:01;1.87;;;1.70;;
16442;SDS011;8331;51.654;14.376;2023-05-10T12:09:28;3.57;;;1.83;;
16442;SDS011;8331;51.654;14.376;2023-05-10T12:12:08;3.27;;;1.90;;
16442;SDS011;8331;51.654;14.376;2023-05-10T12:14:35;1.90;;;1.80;;
16442;SDS011;8331;51.654;14.376;2023-05-10T12:17:02;2.80;;;1.80;;
16442;SDS011;8331;51.654;14.376;2023-05-10T12:19:29;2.27;;;2.17;;
16442;SDS011;8331;51.654;14.376;2023-05-10T12:22:04;2.97;;;1.90;;
16442;SDS011;8331;51.654;14.376;2023-05-10T12:24:33;1.90;;;1.80;;
16442;SDS011;8331;51.654;14.376;2023-05-10T12:26:59;4.10;;;1.97;;
16442;SDS011;8331;51.654;14.376;2023-05-10T12:29:26;3.73;;;1.90;;
16442;SDS011;8331;51.654;14.376;2023-05-10T12:31:57;2.70;;;2.00;;
16442;SDS011;8331;51.654;14.376;2023-05-10T12:36:54;2.17;;;1.70;;
16442;SDS011;8331;51.654;14.376;2023-05-10T12:39:21;2.23;;;1.87;;
16442;SDS011;8331;51.654;14.376;2023-05-10T12:41:48;5.63;;;1.90;;
16442;SDS011;8331;51.654;14.376;2023-05-10T12:44:14;2.03;;;1.60;;
16442;SDS011;8331;51.654;14.376;2023-05-10T12:46:41;2.73;;;2.10;;
16442;SDS011;8331;51.654;14.376;2023-05-10T12:49:07;2.57;;;1.70;;
16442;SDS011;8331;51.654;14.376;2023-05-10T12:51:35;2.33;;;2.03;;
16442;SDS011;8331;51.654;14.376;2023-05-10T12:54:02;2.13;;;2.03;;
16442;SDS011;8331;51.654;14.376;2023-05-10T12:56:29;4.60;;;1.80;;
16442;SDS011;8331;51.654;14.376;2023-05-10T12:58:55;2.10;;;1.83;;
16442;SDS011;8331;51.654;14.376;2023-05-10T13:01:22;2.77;;;2.00;;
16442;SDS011;8331;51.654;14.376;2023-05-10T13:03:49;2.20;;;1.80;;
16442;SDS011;8331;51.654;14.376;2023-05-10T13:06:16;1.90;;;1.80;;
16442;SDS011;8331;51.654;14.376;2023-05-10T13:08:43;2.60;;;1.90;;
16442;SDS011;8331;51.654;14.376;2023-05-10T13:11:09;2.07;;;1.90;;
16442;SDS011;8331;51.654;14.376;2023-05-10T13:13:36;2.67;;;2.00;;
16442;SDS011;8331;51.654;14.376;2023-05-10T13:16:03;2.97;;;2.10;;
16442;SDS011;8331;51.654;14.376;2023-05-10T13:18:30;1.93;;;1.83;;
16442;SDS011;8331;51.654;14.376;2023-05-10T13:20:56;3.00;;;1.90;;
16442;SDS011;8331;51.654;14.376;2023-05-10T13:23:23;4.07;;;2.10;;
16442;SDS011;8331;51.654;14.376;2023-05-10T13:25:49;2.27;;;2.07;;
16442;SDS011;8331;51.654;14.376;2023-05-10T13:28:16;3.67;;;2.10;;
16442;SDS011;8331;51.654;14.376;2023-05-10T13:30:43;2.33;;;2.03;;
16442;SDS011;8331;51.654;14.376;2023-05-10T13:33:09;2.10;;;2.00;;
16442;SDS011;8331;51.654;14.376;2023-05-10T13:35:36;3.50;;;1.83;;
16442;SDS011;8331;51.654;14.376;2023-05-10T13:38:02;2.13;;;2.00;;
16442;SDS011;8331;51.654;14.376;2023-05-10T13:40:29;2.30;;;2.10;;
16442;SDS011;8331;51.654;14.376;2023-05-10T13:42:56;2.67;;;2.00;;
16442;SDS011;8331;51.654;14.376;2023-05-10T13:45:22;3.17;;;1.97;;
16442;SDS011;8331;51.654;14.376;2023-05-10T13:47:49;1.90;;;1.80;;
16442;SDS011;8331;51.654;14.376;2023-05-10T13:50:16;2.87;;;1.87;;
16442;SDS011;8331;51.654;14.376;2023-05-10T13:52:43;1.97;;;1.80;;
16442;SDS011;8331;51.654;14.376;2023-05-10T13:55:09;3.90;;;1.97;;
16442;SDS011;8331;51.654;14.376;2023-05-10T13:57:38;2.40;;;1.87;;
16442;SDS011;8331;51.654;14.376;2023-05-10T14:00:05;3.00;;;1.80;;
16442;SDS011;8331;51.654;14.376;2023-05-10T14:02:33;2.00;;;1.90;;
16442;SDS011;8331;51.654;14.376;2023-05-10T14:04:59;2.30;;;2.10;;
16442;SDS011;8331;51.654;14.376;2023-05-10T14:07:26;2.23;;;2.03;;
16442;SDS011;8331;51.654;14.376;2023-05-10T14:09:53;3.10;;;2.07;;
16442;SDS011;8331;51.654;14.376;2023-05-10T14:12:19;1.67;;;1.57;;
16442;SDS011;8331;51.654;14.376;2023-05-10T14:14:46;2.13;;;1.97;;
16442;SDS011;8331;51.654;14.376;2023-05-10T14:17:12;4.10;;;1.87;;
16442;SDS011;8331;51.654;14.376;2023-05-10T14:19:39;4.70;;;2.00;;
16442;SDS011;8331;51.654;14.376;2023-05-10T14:22:06;2.03;;;1.50;;
16442;SDS011;8331;51.654;14.376;2023-05-10T14:24:32;4.43;;;2.00;;
16442;SDS011;8331;51.654;14.376;2023-05-10T14:26:59;2.60;;;1.90;;
16442;SDS011;8331;51.654;14.376;2023-05-10T14:29:26;3.13;;;1.90;;
16442;SDS011;8331;51.654;14.376;2023-05-10T14:31:53;5.47;;;1.87;;
16442;SDS011;8331;51.654;14.376;2023-05-10T14:34:19;2.30;;;1.90;;
16442;SDS011;8331;51.654;14.376;2023-05-10T14:36:46;2.87;;;1.87;;
16442;SDS011;8331;51.654;14.376;2023-05-10T14:39:12;2.57;;;1.70;;
16442;SDS011;8331;51.654;14.376;2023-05-10T14:41:39;1.90;;;1.77;;
16442;SDS011;8331;51.654;14.376;2023-05-10T14:44:09;2.73;;;2.10;;
16442;SDS011;8331;51.654;14.376;2023-05-10T14:46:36;2.73;;;1.90;;
16442;SDS011;8331;51.654;14.376;2023-05-10T14:49:03;2.20;;;2.00;;
16442;SDS011;8331;51.654;14.376;2023-05-10T14:51:29;2.30;;;2.10;;
16442;SDS011;8331;51.654;14.376;2023-05-10T14:53:56;3.60;;;1.70;;
16442;SDS011;8331;51.654;14.376;2023-05-10T14:56:23;2.23;;;1.73;;
16442;SDS011;8331;51.654;14.376;2023-05-10T14:58:49;3.07;;;1.80;;
16442;SDS011;8331;51.654;14.376;2023-05-10T15:01:16;1.83;;;1.73;;
16442;SDS011;8331;51.654;14.376;2023-05-10T15:03:44;2.80;;;1.97;;
16442;SDS011;8331;51.654;14.376;2023-05-10T15:06:10;2.20;;;1.90;;
16442;SDS011;8331;51.654;14.376;2023-05-10T15:08:37;4.47;;;1.90;;
16442;SDS011;8331;51.654;14.376;2023-05-10T15:11:04;4.40;;;1.83;;
16442;SDS011;8331;51.654;14.376;2023-05-10T15:13:30;2.47;;;2.10;;
16442;SDS011;8331;51.654;14.376;2023-05-10T15:15:57;3.03;;;1.97;;
16442;SDS011;8331;51.654;14.376;2023-05-10T15:18:24;2.00;;;1.80;;
16442;SDS011;8331;51.654;14.376;2023-05-10T15:20:50;4.47;;;1.77;;
16442;SDS011;8331;51.654;14.376;2023-05-10T15:23:17;2.47;;;2.27;;
16442;SDS011;8331;51.654;14.376;2023-05-10T15:25:44;2.27;;;2.07;;
16442;SDS011;8331;51.654;14.376;2023-05-10T15:28:10;2.30;;;2.10;;
16442;SDS011;8331;51.654;14.376;2023-05-10T15:30:37;2.60;;;2.13;;